sensor_id;sensor_type;location;lat;lon;timestamp;temperature;humidity
22153;DHT22;11242;50.536;12.688;2024-02-14T00:02:06;2.00;99.90
22153;DHT22;11242;50.536;12.688;2024-02-14T00:04:32;2.00;99.90
22153;DHT22;11242;50.536;12.688;2024-02-14T00:06:57;2.10;99.90
22153;DHT22;11242;50.536;12.688;2024-02-14T00:09:23;2.10;99.90
22153;DHT22;11242;50.536;12.688;2024-02-14T00:11:48;2.10;99.90
22153;DHT22;11242;50.536;12.688;2024-02-14T00:14:14;2.20;99.90
22153;DHT22;11242;50.536;12.688;2024-02-14T00:16:39;2.40;99.90
22153;DHT22;11242;50.536;12.688;2024-02-14T00:19:05;2.40;99.90
22153;DHT22;11242;50.536;12.688;2024-02-14T00:21:30;2.40;99.90
22153;DHT22;11242;50.536;12.688;2024-02-14T00:23:57;2.40;99.90
22153;DHT22;11242;50.536;12.688;2024-02-14T00:26:24;2.30;99.90
22153;DHT22;11242;50.536;12.688;2024-02-14T00:28:49;2.20;99.90
22153;DHT22;11242;50.536;12.688;2024-02-14T00:31:15;2.30;99.90
22153;DHT22;11242;50.536;12.688;2024-02-14T00:33:41;2.30;99.90
22153;DHT22;11242;50.536;12.688;2024-02-14T00:36:07;2.20;99.90
22153;DHT22;11242;50.536;12.688;2024-02-14T00:38:32;2.20;99.90
22153;DHT22;11242;50.536;12.688;2024-02-14T00:40:58;2.30;99.90
22153;DHT22;11242;50.536;12.688;2024-02-14T00:43:23;2.30;99.90
22153;DHT22;11242;50.536;12.688;2024-02-14T00:45:49;2.30;99.90
22153;DHT22;11242;50.536;12.688;2024-02-14T00:48:15;2.20;99.90
22153;DHT22;11242;50.536;12.688;2024-02-14T00:50:40;2.10;99.90
22153;DHT22;11242;50.536;12.688;2024-02-14T00:53:06;2.20;99.90
22153;DHT22;11242;50.536;12.688;2024-02-14T00:55:31;2.10;99.90
22153;DHT22;11242;50.536;12.688;2024-02-14T00:57:57;2.20;99.90
22153;DHT22;11242;50.536;12.688;2024-02-14T01:00:23;2.20;99.90
22153;DHT22;11242;50.536;12.688;2024-02-14T01:02:48;2.20;99.90
22153;DHT22;11242;50.536;12.688;2024-02-14T01:05:14;2.30;99.90
22153;DHT22;11242;50.536;12.688;2024-02-14T01:07:39;2.30;99.90
22153;DHT22;11242;50.536;12.688;2024-02-14T01:10:05;2.30;99.90
22153;DHT22;11242;50.536;12.688;2024-02-14T01:12:31;2.40;99.90
22153;DHT22;11242;50.536;12.688;2024-02-14T01:14:57;2.50;99.90
22153;DHT22;11242;50.536;12.688;2024-02-14T01:17:23;2.60;99.90
22153;DHT22;11242;50.536;12.688;2024-02-14T01:19:49;2.70;99.90
22153;DHT22;11242;50.536;12.688;2024-02-14T01:22:15;2.80;99.90
22153;DHT22;11242;50.536;12.688;2024-02-14T01:24:43;2.90;99.90
22153;DHT22;11242;50.536;12.688;2024-02-14T01:27:09;2.90;99.90
22153;DHT22;11242;50.536;12.688;2024-02-14T01:29:35;3.00;99.90
22153;DHT22;11242;50.536;12.688;2024-02-14T01:32:00;3.00;99.90
22153;DHT22;11242;50.536;12.688;2024-02-14T01:34:26;3.00;99.90
22153;DHT22;11242;50.536;12.688;2024-02-14T01:36:53;3.00;99.90
22153;DHT22;11242;50.536;12.688;2024-02-14T01:39:20;3.00;99.90
22153;DHT22;11242;50.536;12.688;2024-02-14T01:41:48;3.10;99.90
22153;DHT22;11242;50.536;12.688;2024-02-14T01:44:17;3.10;99.90
22153;DHT22;11242;50.536;12.688;2024-02-14T01:46:43;3.10;99.90
22153;DHT22;11242;50.536;12.688;2024-02-14T01:49:10;3.10;99.90
22153;DHT22;11242;50.536;12.688;2024-02-14T01:51:40;3.10;99.90
22153;DHT22;11242;50.536;12.688;2024-02-14T01:54:07;3.10;99.90
22153;DHT22;11242;50.536;12.688;2024-02-14T01:56:33;3.10;99.90
22153;DHT22;11242;50.536;12.688;2024-02-14T01:59:00;3.20;99.90
22153;DHT22;11242;50.536;12.688;2024-02-14T02:01:26;3.30;99.90
22153;DHT22;11242;50.536;12.688;2024-02-14T02:03:52;3.20;99.90
22153;DHT22;11242;50.536;12.688;2024-02-14T02:06:17;3.30;99.90
22153;DHT22;11242;50.536;12.688;2024-02-14T02:08:44;3.30;99.90
22153;DHT22;11242;50.536;12.688;2024-02-14T02:11:09;3.30;99.90
22153;DHT22;11242;50.536;12.688;2024-02-14T02:13:35;3.40;99.90
22153;DHT22;11242;50.536;12.688;2024-02-14T02:16:02;3.40;99.90
22153;DHT22;11242;50.536;12.688;2024-02-14T02:18:30;3.40;99.90
22153;DHT22;11242;50.536;12.688;2024-02-14T02:20:56;3.50;99.90
22153;DHT22;11242;50.536;12.688;2024-02-14T02:23:22;3.50;99.90
22153;DHT22;11242;50.536;12.688;2024-02-14T02:25:48;3.60;99.90
22153;DHT22;11242;50.536;12.688;2024-02-14T02:28:14;3.60;99.90
22153;DHT22;11242;50.536;12.688;2024-02-14T02:30:40;3.60;99.90
22153;DHT22;11242;50.536;12.688;2024-02-14T02:33:06;3.60;99.90
22153;DHT22;11242;50.536;12.688;2024-02-14T02:35:33;3.50;99.90
22153;DHT22;11242;50.536;12.688;2024-02-14T02:37:58;3.60;99.90
22153;DHT22;11242;50.536;12.688;2024-02-14T02:40:25;3.60;99.90
22153;DHT22;11242;50.536;12.688;2024-02-14T02:42:51;3.70;99.90
22153;DHT22;11242;50.536;12.688;2024-02-14T02:45:17;3.70;99.90
22153;DHT22;11242;50.536;12.688;2024-02-14T02:47:42;3.60;99.90
22153;DHT22;11242;50.536;12.688;2024-02-14T02:50:08;3.70;99.90
22153;DHT22;11242;50.536;12.688;2024-02-14T02:52:34;3.70;99.90
22153;DHT22;11242;50.536;12.688;2024-02-14T02:55:00;3.70;99.90
22153;DHT22;11242;50.536;12.688;2024-02-14T02:57:27;3.60;99.90
22153;DHT22;11242;50.536;12.688;2024-02-14T02:59:53;3.60;99.90
22153;DHT22;11242;50.536;12.688;2024-02-14T03:02:19;3.50;99.90
22153;DHT22;11242;50.536;12.688;2024-02-14T03:04:45;3.40;99.90
22153;DHT22;11242;50.536;12.688;2024-02-14T03:07:11;3.30;99.90
22153;DHT22;11242;50.536;12.688;2024-02-14T03:09:36;3.30;99.90
22153;DHT22;11242;50.536;12.688;2024-02-14T03:12:02;3.30;99.90
22153;DHT22;11242;50.536;12.688;2024-02-14T03:14:30;3.20;99.90
22153;DHT22;11242;50.536;12.688;2024-02-14T03:17:00;3.20;99.90
22153;DHT22;11242;50.536;12.688;2024-02-14T03:19:28;3.30;99.90
22153;DHT22;11242;50.536;12.688;2024-02-14T03:21:54;3.30;99.90
22153;DHT22;11242;50.536;12.688;2024-02-14T03:24:20;3.30;99.90
22153;DHT22;11242;50.536;12.688;2024-02-14T03:26:45;3.30;99.90
22153;DHT22;11242;50.536;12.688;2024-02-14T03:29:12;3.30;99.90
22153;DHT22;11242;50.536;12.688;2024-02-14T03:31:38;3.20;99.90
22153;DHT22;11242;50.536;12.688;2024-02-14T03:34:03;3.20;99.90
22153;DHT22;11242;50.536;12.688;2024-02-14T03:36:29;3.10;99.90
22153;DHT22;11242;50.536;12.688;2024-02-14T03:38:56;3.10;99.90
22153;DHT22;11242;50.536;12.688;2024-02-14T03:41:22;3.00;99.90
22153;DHT22;11242;50.536;12.688;2024-02-14T03:43:48;3.10;99.90
22153;DHT22;11242;50.536;12.688;2024-02-14T03:46:14;3.10;99.90
22153;DHT22;11242;50.536;12.688;2024-02-14T03:48:43;3.10;99.90
22153;DHT22;11242;50.536;12.688;2024-02-14T03:51:08;3.30;99.90
22153;DHT22;11242;50.536;12.688;2024-02-14T03:53:34;3.40;99.90
22153;DHT22;11242;50.536;12.688;2024-02-14T03:55:59;3.40;99.90
22153;DHT22;11242;50.536;12.688;2024-02-14T03:58:26;3.50;99.90
22153;DHT22;11242;50.536;12.688;2024-02-14T04:00:51;3.60;99.90
22153;DHT22;11242;50.536;12.688;2024-02-14T04:03:17;3.60;99.90
22153;DHT22;11242;50.536;12.688;2024-02-14T04:05:43;3.70;99.90
22153;DHT22;11242;50.536;12.688;2024-02-14T04:08:10;3.70;99.90
22153;DHT22;11242;50.536;12.688;2024-02-14T04:10:36;3.60;99.90
22153;DHT22;11242;50.536;12.688;2024-02-14T04:13:03;3.70;99.90
22153;DHT22;11242;50.536;12.688;2024-02-14T04:15:33;3.70;99.90
22153;DHT22;11242;50.536;12.688;2024-02-14T04:17:58;3.70;99.90
22153;DHT22;11242;50.536;12.688;2024-02-14T04:20:25;3.70;99.90
22153;DHT22;11242;50.536;12.688;2024-02-14T04:22:51;3.70;99.90
22153;DHT22;11242;50.536;12.688;2024-02-14T04:25:16;3.70;99.90
22153;DHT22;11242;50.536;12.688;2024-02-14T04:27:43;3.80;99.90
22153;DHT22;11242;50.536;12.688;2024-02-14T04:30:09;3.90;99.90
22153;DHT22;11242;50.536;12.688;2024-02-14T04:32:35;3.80;99.90
22153;DHT22;11242;50.536;12.688;2024-02-14T04:35:01;3.90;99.90
22153;DHT22;11242;50.536;12.688;2024-02-14T04:37:27;3.90;99.90
22153;DHT22;11242;50.536;12.688;2024-02-14T04:39:52;4.00;99.90
22153;DHT22;11242;50.536;12.688;2024-02-14T04:42:18;4.10;99.90
22153;DHT22;11242;50.536;12.688;2024-02-14T04:44:43;4.10;99.90
22153;DHT22;11242;50.536;12.688;2024-02-14T04:47:09;4.10;99.90
22153;DHT22;11242;50.536;12.688;2024-02-14T04:49:35;4.20;99.90
22153;DHT22;11242;50.536;12.688;2024-02-14T04:52:01;4.20;99.90
22153;DHT22;11242;50.536;12.688;2024-02-14T04:54:26;4.30;99.90
22153;DHT22;11242;50.536;12.688;2024-02-14T04:56:53;4.40;99.90
22153;DHT22;11242;50.536;12.688;2024-02-14T04:59:18;4.40;99.90
22153;DHT22;11242;50.536;12.688;2024-02-14T05:01:44;4.40;99.90
22153;DHT22;11242;50.536;12.688;2024-02-14T05:04:10;4.40;99.90
22153;DHT22;11242;50.536;12.688;2024-02-14T05:06:38;4.40;99.90
22153;DHT22;11242;50.536;12.688;2024-02-14T05:09:04;4.50;99.90
22153;DHT22;11242;50.536;12.688;2024-02-14T05:11:29;4.50;99.90
22153;DHT22;11242;50.536;12.688;2024-02-14T05:13:55;4.60;99.90
22153;DHT22;11242;50.536;12.688;2024-02-14T05:16:21;4.60;99.90
22153;DHT22;11242;50.536;12.688;2024-02-14T05:18:46;4.70;99.90
22153;DHT22;11242;50.536;12.688;2024-02-14T05:21:12;4.70;99.90
22153;DHT22;11242;50.536;12.688;2024-02-14T05:23:38;4.70;99.90
22153;DHT22;11242;50.536;12.688;2024-02-14T05:26:04;4.80;99.90
22153;DHT22;11242;50.536;12.688;2024-02-14T05:28:30;4.80;99.90
22153;DHT22;11242;50.536;12.688;2024-02-14T05:30:56;4.80;99.90
22153;DHT22;11242;50.536;12.688;2024-02-14T05:33:22;4.90;99.90
22153;DHT22;11242;50.536;12.688;2024-02-14T05:35:49;4.90;99.90
22153;DHT22;11242;50.536;12.688;2024-02-14T05:38:14;4.90;99.90
22153;DHT22;11242;50.536;12.688;2024-02-14T05:40:40;4.90;99.90
22153;DHT22;11242;50.536;12.688;2024-02-14T05:43:06;4.90;99.90
22153;DHT22;11242;50.536;12.688;2024-02-14T05:45:33;4.90;99.90
22153;DHT22;11242;50.536;12.688;2024-02-14T05:47:58;4.90;99.90
22153;DHT22;11242;50.536;12.688;2024-02-14T05:50:24;4.90;99.90
22153;DHT22;11242;50.536;12.688;2024-02-14T05:52:49;4.90;99.90
22153;DHT22;11242;50.536;12.688;2024-02-14T05:55:15;4.90;99.90
22153;DHT22;11242;50.536;12.688;2024-02-14T05:57:40;4.80;99.90
22153;DHT22;11242;50.536;12.688;2024-02-14T06:00:07;4.90;99.90
22153;DHT22;11242;50.536;12.688;2024-02-14T06:02:38;4.90;99.90
22153;DHT22;11242;50.536;12.688;2024-02-14T06:05:06;4.90;99.90
22153;DHT22;11242;50.536;12.688;2024-02-14T06:07:35;4.90;99.90
22153;DHT22;11242;50.536;12.688;2024-02-14T06:10:01;4.90;99.90
22153;DHT22;11242;50.536;12.688;2024-02-14T06:12:26;4.90;99.90
22153;DHT22;11242;50.536;12.688;2024-02-14T06:14:52;4.90;99.90
22153;DHT22;11242;50.536;12.688;2024-02-14T06:17:17;4.90;99.90
22153;DHT22;11242;50.536;12.688;2024-02-14T06:19:43;5.00;99.90
22153;DHT22;11242;50.536;12.688;2024-02-14T06:22:08;5.10;99.90
22153;DHT22;11242;50.536;12.688;2024-02-14T06:24:36;5.10;99.90
22153;DHT22;11242;50.536;12.688;2024-02-14T06:27:01;5.10;99.90
22153;DHT22;11242;50.536;12.688;2024-02-14T06:29:27;5.20;99.90
22153;DHT22;11242;50.536;12.688;2024-02-14T06:31:52;5.20;99.90
22153;DHT22;11242;50.536;12.688;2024-02-14T06:34:18;5.30;99.90
22153;DHT22;11242;50.536;12.688;2024-02-14T06:36:48;5.30;99.90
22153;DHT22;11242;50.536;12.688;2024-02-14T06:39:13;5.30;99.90
22153;DHT22;11242;50.536;12.688;2024-02-14T06:41:39;5.30;99.90
22153;DHT22;11242;50.536;12.688;2024-02-14T06:44:05;5.30;99.90
22153;DHT22;11242;50.536;12.688;2024-02-14T06:46:31;5.30;99.90
22153;DHT22;11242;50.536;12.688;2024-02-14T06:48:56;5.30;99.90
22153;DHT22;11242;50.536;12.688;2024-02-14T06:51:22;5.30;99.90
22153;DHT22;11242;50.536;12.688;2024-02-14T06:53:49;5.30;99.90
22153;DHT22;11242;50.536;12.688;2024-02-14T06:56:15;5.30;99.90
22153;DHT22;11242;50.536;12.688;2024-02-14T06:58:41;5.40;99.90
22153;DHT22;11242;50.536;12.688;2024-02-14T07:01:07;5.40;99.90
22153;DHT22;11242;50.536;12.688;2024-02-14T07:03:33;5.40;99.90
22153;DHT22;11242;50.536;12.688;2024-02-14T07:05:59;5.50;99.90
22153;DHT22;11242;50.536;12.688;2024-02-14T07:08:24;5.50;99.90
22153;DHT22;11242;50.536;12.688;2024-02-14T07:10:53;5.60;99.90
22153;DHT22;11242;50.536;12.688;2024-02-14T07:13:19;5.60;99.90
22153;DHT22;11242;50.536;12.688;2024-02-14T07:15:44;5.60;99.90
22153;DHT22;11242;50.536;12.688;2024-02-14T07:18:10;5.70;99.90
22153;DHT22;11242;50.536;12.688;2024-02-14T07:20:36;5.70;99.90
22153;DHT22;11242;50.536;12.688;2024-02-14T07:23:01;5.70;99.90
22153;DHT22;11242;50.536;12.688;2024-02-14T07:25:28;5.70;99.90
22153;DHT22;11242;50.536;12.688;2024-02-14T07:27:53;5.90;99.90
22153;DHT22;11242;50.536;12.688;2024-02-14T07:30:19;5.90;99.90
22153;DHT22;11242;50.536;12.688;2024-02-14T07:32:45;6.00;99.90
22153;DHT22;11242;50.536;12.688;2024-02-14T07:35:11;6.00;99.90
22153;DHT22;11242;50.536;12.688;2024-02-14T07:37:37;6.10;99.90
22153;DHT22;11242;50.536;12.688;2024-02-14T07:40:03;6.10;99.90
22153;DHT22;11242;50.536;12.688;2024-02-14T07:42:29;6.10;99.90
22153;DHT22;11242;50.536;12.688;2024-02-14T07:44:55;6.20;99.90
22153;DHT22;11242;50.536;12.688;2024-02-14T07:47:21;6.10;99.90
22153;DHT22;11242;50.536;12.688;2024-02-14T07:49:47;6.10;99.90
22153;DHT22;11242;50.536;12.688;2024-02-14T07:52:13;6.20;99.90
22153;DHT22;11242;50.536;12.688;2024-02-14T07:54:38;6.20;99.90
22153;DHT22;11242;50.536;12.688;2024-02-14T07:57:04;6.30;99.90
22153;DHT22;11242;50.536;12.688;2024-02-14T07:59:30;6.50;99.90
22153;DHT22;11242;50.536;12.688;2024-02-14T08:01:55;6.60;99.90
22153;DHT22;11242;50.536;12.688;2024-02-14T08:04:23;6.80;99.90
22153;DHT22;11242;50.536;12.688;2024-02-14T08:06:48;6.80;99.90
22153;DHT22;11242;50.536;12.688;2024-02-14T08:09:17;7.40;99.90
22153;DHT22;11242;50.536;12.688;2024-02-14T08:11:42;8.60;99.90
22153;DHT22;11242;50.536;12.688;2024-02-14T08:14:08;9.70;99.90
22153;DHT22;11242;50.536;12.688;2024-02-14T08:16:34;10.10;99.90
22153;DHT22;11242;50.536;12.688;2024-02-14T08:19:01;10.60;99.90
22153;DHT22;11242;50.536;12.688;2024-02-14T08:21:27;10.90;99.90
22153;DHT22;11242;50.536;12.688;2024-02-14T08:23:56;11.50;99.90
22153;DHT22;11242;50.536;12.688;2024-02-14T08:26:22;11.70;99.90
22153;DHT22;11242;50.536;12.688;2024-02-14T08:28:48;11.10;99.90
22153;DHT22;11242;50.536;12.688;2024-02-14T08:31:14;11.10;99.90
22153;DHT22;11242;50.536;12.688;2024-02-14T08:33:39;10.80;99.90
22153;DHT22;11242;50.536;12.688;2024-02-14T08:36:06;10.80;99.90
22153;DHT22;11242;50.536;12.688;2024-02-14T08:38:35;10.70;99.90
22153;DHT22;11242;50.536;12.688;2024-02-14T08:41:01;11.00;99.90
22153;DHT22;11242;50.536;12.688;2024-02-14T08:43:28;11.20;99.90
22153;DHT22;11242;50.536;12.688;2024-02-14T08:45:56;11.60;99.90
22153;DHT22;11242;50.536;12.688;2024-02-14T08:48:23;10.90;99.90
22153;DHT22;11242;50.536;12.688;2024-02-14T08:50:48;11.10;99.90
22153;DHT22;11242;50.536;12.688;2024-02-14T08:53:15;11.00;99.90
22153;DHT22;11242;50.536;12.688;2024-02-14T08:55:41;11.60;99.90
22153;DHT22;11242;50.536;12.688;2024-02-14T08:58:07;11.80;99.90
22153;DHT22;11242;50.536;12.688;2024-02-14T09:00:37;12.20;99.90
22153;DHT22;11242;50.536;12.688;2024-02-14T09:03:04;12.20;99.90
22153;DHT22;11242;50.536;12.688;2024-02-14T09:05:30;11.90;99.90
22153;DHT22;11242;50.536;12.688;2024-02-14T09:07:55;12.00;99.90
22153;DHT22;11242;50.536;12.688;2024-02-14T09:10:21;11.50;99.90
22153;DHT22;11242;50.536;12.688;2024-02-14T09:12:47;10.80;99.90
22153;DHT22;11242;50.536;12.688;2024-02-14T09:15:13;10.70;99.90
22153;DHT22;11242;50.536;12.688;2024-02-14T09:17:38;10.10;99.90
22153;DHT22;11242;50.536;12.688;2024-02-14T09:20:09;9.70;99.90
22153;DHT22;11242;50.536;12.688;2024-02-14T09:22:35;9.50;99.90
22153;DHT22;11242;50.536;12.688;2024-02-14T09:25:01;9.30;99.90
22153;DHT22;11242;50.536;12.688;2024-02-14T09:27:30;9.00;99.90
22153;DHT22;11242;50.536;12.688;2024-02-14T09:29:55;8.90;99.90
22153;DHT22;11242;50.536;12.688;2024-02-14T09:32:21;9.00;99.90
22153;DHT22;11242;50.536;12.688;2024-02-14T09:34:46;9.00;99.90
22153;DHT22;11242;50.536;12.688;2024-02-14T09:37:12;8.80;99.90
22153;DHT22;11242;50.536;12.688;2024-02-14T09:39:38;8.60;99.90
22153;DHT22;11242;50.536;12.688;2024-02-14T09:42:09;8.60;99.90
22153;DHT22;11242;50.536;12.688;2024-02-14T09:44:36;8.50;99.90
22153;DHT22;11242;50.536;12.688;2024-02-14T09:47:04;8.50;99.90
22153;DHT22;11242;50.536;12.688;2024-02-14T09:49:31;8.30;99.90
22153;DHT22;11242;50.536;12.688;2024-02-14T09:51:57;8.30;99.90
22153;DHT22;11242;50.536;12.688;2024-02-14T09:54:24;8.50;99.90
22153;DHT22;11242;50.536;12.688;2024-02-14T09:56:51;8.40;99.90
22153;DHT22;11242;50.536;12.688;2024-02-14T09:59:19;8.50;99.90
22153;DHT22;11242;50.536;12.688;2024-02-14T10:01:46;8.50;99.90
22153;DHT22;11242;50.536;12.688;2024-02-14T10:04:13;8.40;99.90
22153;DHT22;11242;50.536;12.688;2024-02-14T10:06:39;8.40;99.90
22153;DHT22;11242;50.536;12.688;2024-02-14T10:09:04;8.50;99.90
22153;DHT22;11242;50.536;12.688;2024-02-14T10:11:31;8.40;99.90
22153;DHT22;11242;50.536;12.688;2024-02-14T10:13:57;8.50;99.90
22153;DHT22;11242;50.536;12.688;2024-02-14T10:16:27;8.60;99.90
22153;DHT22;11242;50.536;12.688;2024-02-14T10:18:52;8.70;99.90
22153;DHT22;11242;50.536;12.688;2024-02-14T10:21:18;8.90;99.90
22153;DHT22;11242;50.536;12.688;2024-02-14T10:23:45;8.80;99.90
22153;DHT22;11242;50.536;12.688;2024-02-14T10:26:13;8.90;99.90
22153;DHT22;11242;50.536;12.688;2024-02-14T10:28:42;9.20;99.90
22153;DHT22;11242;50.536;12.688;2024-02-14T10:31:10;9.20;99.90
22153;DHT22;11242;50.536;12.688;2024-02-14T10:33:36;9.40;99.90
22153;DHT22;11242;50.536;12.688;2024-02-14T10:36:02;9.20;99.90
22153;DHT22;11242;50.536;12.688;2024-02-14T10:38:30;9.20;99.90
22153;DHT22;11242;50.536;12.688;2024-02-14T10:40:59;9.10;99.90
22153;DHT22;11242;50.536;12.688;2024-02-14T10:43:25;9.10;99.90
22153;DHT22;11242;50.536;12.688;2024-02-14T10:45:56;9.00;99.90
22153;DHT22;11242;50.536;12.688;2024-02-14T10:48:22;8.90;99.90
22153;DHT22;11242;50.536;12.688;2024-02-14T10:50:50;8.80;99.90
22153;DHT22;11242;50.536;12.688;2024-02-14T10:53:18;8.80;99.90
22153;DHT22;11242;50.536;12.688;2024-02-14T10:55:51;8.90;99.90
22153;DHT22;11242;50.536;12.688;2024-02-14T10:58:19;9.10;99.90
22153;DHT22;11242;50.536;12.688;2024-02-14T11:00:45;9.20;99.90
22153;DHT22;11242;50.536;12.688;2024-02-14T11:03:11;9.00;99.90
22153;DHT22;11242;50.536;12.688;2024-02-14T11:05:46;9.00;99.90
22153;DHT22;11242;50.536;12.688;2024-02-14T11:08:18;9.00;99.90
22153;DHT22;11242;50.536;12.688;2024-02-14T11:10:53;8.90;99.90
22153;DHT22;11242;50.536;12.688;2024-02-14T11:13:19;8.80;99.90
22153;DHT22;11242;50.536;12.688;2024-02-14T11:15:45;8.70;99.90
22153;DHT22;11242;50.536;12.688;2024-02-14T11:18:11;8.60;99.90
22153;DHT22;11242;50.536;12.688;2024-02-14T11:20:37;8.40;99.90
22153;DHT22;11242;50.536;12.688;2024-02-14T11:23:03;8.40;99.90
22153;DHT22;11242;50.536;12.688;2024-02-14T11:25:31;8.50;99.90
22153;DHT22;11242;50.536;12.688;2024-02-14T11:27:58;8.60;99.90
22153;DHT22;11242;50.536;12.688;2024-02-14T11:30:29;8.60;99.90
22153;DHT22;11242;50.536;12.688;2024-02-14T11:33:16;8.80;99.90
22153;DHT22;11242;50.536;12.688;2024-02-14T11:35:43;8.90;99.90
22153;DHT22;11242;50.536;12.688;2024-02-14T11:38:09;9.00;99.90
22153;DHT22;11242;50.536;12.688;2024-02-14T11:40:36;9.10;99.90
22153;DHT22;11242;50.536;12.688;2024-02-14T11:43:03;9.10;99.90
22153;DHT22;11242;50.536;12.688;2024-02-14T11:45:29;9.20;99.90
22153;DHT22;11242;50.536;12.688;2024-02-14T11:47:55;9.30;99.90
22153;DHT22;11242;50.536;12.688;2024-02-14T11:50:21;9.10;99.90
22153;DHT22;11242;50.536;12.688;2024-02-14T11:52:46;9.20;99.90
22153;DHT22;11242;50.536;12.688;2024-02-14T11:55:12;9.20;99.90
22153;DHT22;11242;50.536;12.688;2024-02-14T11:57:41;8.90;99.90
22153;DHT22;11242;50.536;12.688;2024-02-14T12:00:08;8.60;99.90
22153;DHT22;11242;50.536;12.688;2024-02-14T12:02:35;8.40;99.90
22153;DHT22;11242;50.536;12.688;2024-02-14T12:05:01;8.20;99.90
22153;DHT22;11242;50.536;12.688;2024-02-14T12:07:30;8.10;99.90
22153;DHT22;11242;50.536;12.688;2024-02-14T12:09:56;7.90;99.90
22153;DHT22;11242;50.536;12.688;2024-02-14T12:12:22;7.90;99.90
22153;DHT22;11242;50.536;12.688;2024-02-14T12:14:52;8.00;99.90
22153;DHT22;11242;50.536;12.688;2024-02-14T12:17:17;8.00;99.90
22153;DHT22;11242;50.536;12.688;2024-02-14T12:19:49;8.00;99.90
22153;DHT22;11242;50.536;12.688;2024-02-14T12:22:16;8.00;99.90
22153;DHT22;11242;50.536;12.688;2024-02-14T12:24:45;8.10;99.90
22153;DHT22;11242;50.536;12.688;2024-02-14T12:27:12;8.20;99.90
22153;DHT22;11242;50.536;12.688;2024-02-14T12:29:37;8.20;99.90
22153;DHT22;11242;50.536;12.688;2024-02-14T12:32:06;8.20;99.90
22153;DHT22;11242;50.536;12.688;2024-02-14T12:34:32;8.30;99.90
22153;DHT22;11242;50.536;12.688;2024-02-14T12:36:58;8.10;99.90
22153;DHT22;11242;50.536;12.688;2024-02-14T12:39:26;8.00;99.90
22153;DHT22;11242;50.536;12.688;2024-02-14T12:41:52;8.10;99.90
22153;DHT22;11242;50.536;12.688;2024-02-14T12:44:18;8.00;99.90
22153;DHT22;11242;50.536;12.688;2024-02-14T12:46:44;8.00;99.90
22153;DHT22;11242;50.536;12.688;2024-02-14T12:49:09;8.00;99.90
22153;DHT22;11242;50.536;12.688;2024-02-14T12:51:36;8.10;99.90
22153;DHT22;11242;50.536;12.688;2024-02-14T12:54:04;8.10;99.90
22153;DHT22;11242;50.536;12.688;2024-02-14T12:56:30;8.20;99.90
22153;DHT22;11242;50.536;12.688;2024-02-14T12:58:57;8.30;99.90
22153;DHT22;11242;50.536;12.688;2024-02-14T13:01:22;8.40;99.90
22153;DHT22;11242;50.536;12.688;2024-02-14T13:03:48;8.50;99.90
22153;DHT22;11242;50.536;12.688;2024-02-14T13:06:13;8.70;99.90
22153;DHT22;11242;50.536;12.688;2024-02-14T13:08:42;8.80;99.90
22153;DHT22;11242;50.536;12.688;2024-02-14T13:11:07;9.00;99.90
22153;DHT22;11242;50.536;12.688;2024-02-14T13:13:36;9.10;99.90
22153;DHT22;11242;50.536;12.688;2024-02-14T13:16:01;9.30;99.90
22153;DHT22;11242;50.536;12.688;2024-02-14T13:18:27;9.40;99.90
22153;DHT22;11242;50.536;12.688;2024-02-14T13:20:53;9.40;99.90
22153;DHT22;11242;50.536;12.688;2024-02-14T13:23:25;9.30;99.90
22153;DHT22;11242;50.536;12.688;2024-02-14T13:25:51;9.20;99.90
22153;DHT22;11242;50.536;12.688;2024-02-14T13:28:16;9.10;99.90
22153;DHT22;11242;50.536;12.688;2024-02-14T13:30:42;9.20;99.90
22153;DHT22;11242;50.536;12.688;2024-02-14T13:33:07;9.30;99.90
22153;DHT22;11242;50.536;12.688;2024-02-14T13:35:36;9.30;99.90
22153;DHT22;11242;50.536;12.688;2024-02-14T13:38:04;9.30;99.90
22153;DHT22;11242;50.536;12.688;2024-02-14T13:40:31;9.30;99.90
22153;DHT22;11242;50.536;12.688;2024-02-14T13:42:57;9.10;99.90
22153;DHT22;11242;50.536;12.688;2024-02-14T13:45:23;9.10;99.90
22153;DHT22;11242;50.536;12.688;2024-02-14T13:47:50;9.10;99.90
22153;DHT22;11242;50.536;12.688;2024-02-14T13:50:16;9.20;99.90
22153;DHT22;11242;50.536;12.688;2024-02-14T13:52:41;9.00;99.90
22153;DHT22;11242;50.536;12.688;2024-02-14T13:55:07;8.80;99.90
22153;DHT22;11242;50.536;12.688;2024-02-14T13:57:37;8.70;99.90
22153;DHT22;11242;50.536;12.688;2024-02-14T14:00:07;8.70;99.90
22153;DHT22;11242;50.536;12.688;2024-02-14T14:02:39;8.80;99.90
22153;DHT22;11242;50.536;12.688;2024-02-14T14:05:09;8.70;99.90
22153;DHT22;11242;50.536;12.688;2024-02-14T14:07:38;8.70;99.90
22153;DHT22;11242;50.536;12.688;2024-02-14T14:10:08;8.70;99.90
22153;DHT22;11242;50.536;12.688;2024-02-14T14:12:34;8.70;99.90
22153;DHT22;11242;50.536;12.688;2024-02-14T14:15:01;8.70;99.90
22153;DHT22;11242;50.536;12.688;2024-02-14T14:17:26;8.60;99.90
22153;DHT22;11242;50.536;12.688;2024-02-14T14:19:53;8.70;99.90
22153;DHT22;11242;50.536;12.688;2024-02-14T14:22:19;8.70;99.90
22153;DHT22;11242;50.536;12.688;2024-02-14T14:24:44;8.70;99.90
22153;DHT22;11242;50.536;12.688;2024-02-14T14:27:10;8.70;99.90
22153;DHT22;11242;50.536;12.688;2024-02-14T14:29:42;8.70;99.90
22153;DHT22;11242;50.536;12.688;2024-02-14T14:32:08;8.60;99.90
22153;DHT22;11242;50.536;12.688;2024-02-14T14:34:34;8.60;99.90
22153;DHT22;11242;50.536;12.688;2024-02-14T14:37:00;8.60;99.90
22153;DHT22;11242;50.536;12.688;2024-02-14T14:39:26;8.60;99.90
22153;DHT22;11242;50.536;12.688;2024-02-14T14:41:52;8.60;99.90
22153;DHT22;11242;50.536;12.688;2024-02-14T14:44:21;8.60;99.90
22153;DHT22;11242;50.536;12.688;2024-02-14T14:46:47;8.50;99.90
22153;DHT22;11242;50.536;12.688;2024-02-14T14:49:12;8.50;99.90
22153;DHT22;11242;50.536;12.688;2024-02-14T14:51:38;8.60;99.90
22153;DHT22;11242;50.536;12.688;2024-02-14T14:54:04;8.60;99.90
22153;DHT22;11242;50.536;12.688;2024-02-14T14:56:30;8.60;99.90
22153;DHT22;11242;50.536;12.688;2024-02-14T14:58:56;8.70;99.90
22153;DHT22;11242;50.536;12.688;2024-02-14T15:01:24;8.70;99.90
22153;DHT22;11242;50.536;12.688;2024-02-14T15:03:50;8.70;99.90
22153;DHT22;11242;50.536;12.688;2024-02-14T15:06:18;8.70;99.90
22153;DHT22;11242;50.536;12.688;2024-02-14T15:08:44;8.70;99.90
22153;DHT22;11242;50.536;12.688;2024-02-14T15:11:10;8.60;99.90
22153;DHT22;11242;50.536;12.688;2024-02-14T15:13:40;8.60;99.90
22153;DHT22;11242;50.536;12.688;2024-02-14T15:16:06;8.50;99.90
22153;DHT22;11242;50.536;12.688;2024-02-14T15:18:33;8.40;99.90
22153;DHT22;11242;50.536;12.688;2024-02-14T15:20:59;8.40;99.90
22153;DHT22;11242;50.536;12.688;2024-02-14T15:23:25;8.40;99.90
22153;DHT22;11242;50.536;12.688;2024-02-14T15:25:50;8.30;99.90